sensor_id;sensor_type;location;lat;lon;timestamp;temperature;humidity
19864;DHT22;10094;48.820;9.226;2023-08-30T00:03:57;14.90;99.90
19864;DHT22;10094;48.820;9.226;2023-08-30T00:10:39;14.80;99.90
19864;DHT22;10094;48.820;9.226;2023-08-30T00:17:21;14.70;99.90
19864;DHT22;10094;48.820;9.226;2023-08-30T00:24:03;14.60;99.90
19864;DHT22;10094;48.820;9.226;2023-08-30T00:30:44;14.50;99.90
19864;DHT22;10094;48.820;9.226;2023-08-30T00:37:26;14.10;99.90
19864;DHT22;10094;48.820;9.226;2023-08-30T00:44:08;14.50;99.90
19864;DHT22;10094;48.820;9.226;2023-08-30T00:50:50;14.70;99.90
19864;DHT22;10094;48.820;9.226;2023-08-30T00:57:32;14.60;99.90
19864;DHT22;10094;48.820;9.226;2023-08-30T01:04:14;14.50;99.90
19864;DHT22;10094;48.820;9.226;2023-08-30T01:17:44;14.50;99.90
19864;DHT22;10094;48.820;9.226;2023-08-30T01:24:35;14.40;99.90
19864;DHT22;10094;48.820;9.226;2023-08-30T01:31:19;14.50;99.90
19864;DHT22;10094;48.820;9.226;2023-08-30T01:38:03;14.40;99.90
19864;DHT22;10094;48.820;9.226;2023-08-30T01:44:46;14.50;99.90
19864;DHT22;10094;48.820;9.226;2023-08-30T01:51:29;14.50;99.90
19864;DHT22;10094;48.820;9.226;2023-08-30T01:58:11;14.40;99.90
19864;DHT22;10094;48.820;9.226;2023-08-30T02:04:53;14.40;99.90
19864;DHT22;10094;48.820;9.226;2023-08-30T02:11:37;14.30;99.90
19864;DHT22;10094;48.820;9.226;2023-08-30T02:18:19;14.30;99.90
19864;DHT22;10094;48.820;9.226;2023-08-30T02:25:01;14.30;99.90
19864;DHT22;10094;48.820;9.226;2023-08-30T02:31:46;14.40;99.90
19864;DHT22;10094;48.820;9.226;2023-08-30T02:38:28;14.40;99.90
19864;DHT22;10094;48.820;9.226;2023-08-30T02:45:10;14.40;99.90
19864;DHT22;10094;48.820;9.226;2023-08-30T02:51:51;14.40;99.90
19864;DHT22;10094;48.820;9.226;2023-08-30T02:58:33;14.30;99.90
19864;DHT22;10094;48.820;9.226;2023-08-30T03:05:16;14.30;99.90
19864;DHT22;10094;48.820;9.226;2023-08-30T03:11:57;14.30;99.90
19864;DHT22;10094;48.820;9.226;2023-08-30T03:18:40;14.20;99.90
19864;DHT22;10094;48.820;9.226;2023-08-30T03:25:22;14.20;99.90
19864;DHT22;10094;48.820;9.226;2023-08-30T03:32:04;14.10;99.90
19864;DHT22;10094;48.820;9.226;2023-08-30T03:38:47;14.10;99.90
19864;DHT22;10094;48.820;9.226;2023-08-30T03:45:29;14.00;99.90
19864;DHT22;10094;48.820;9.226;2023-08-30T03:52:10;14.10;99.90
19864;DHT22;10094;48.820;9.226;2023-08-30T03:58:52;14.10;99.90
19864;DHT22;10094;48.820;9.226;2023-08-30T04:05:34;14.20;99.90
19864;DHT22;10094;48.820;9.226;2023-08-30T04:12:16;14.30;99.90
19864;DHT22;10094;48.820;9.226;2023-08-30T04:18:58;14.30;99.90
19864;DHT22;10094;48.820;9.226;2023-08-30T04:25:39;14.30;99.90
19864;DHT22;10094;48.820;9.226;2023-08-30T04:32:22;14.30;99.90
19864;DHT22;10094;48.820;9.226;2023-08-30T04:39:04;14.20;99.90
19864;DHT22;10094;48.820;9.226;2023-08-30T04:45:47;14.10;99.90
19864;DHT22;10094;48.820;9.226;2023-08-30T04:52:30;14.00;99.90
19864;DHT22;10094;48.820;9.226;2023-08-30T04:59:13;14.30;99.90
19864;DHT22;10094;48.820;9.226;2023-08-30T05:05:59;14.20;99.90
19864;DHT22;10094;48.820;9.226;2023-08-30T05:12:40;14.20;99.90
19864;DHT22;10094;48.820;9.226;2023-08-30T05:19:24;14.30;99.90
19864;DHT22;10094;48.820;9.226;2023-08-30T05:26:06;14.20;99.90
19864;DHT22;10094;48.820;9.226;2023-08-30T05:32:47;14.20;99.90
19864;DHT22;10094;48.820;9.226;2023-08-30T05:39:57;14.40;99.90
19864;DHT22;10094;48.820;9.226;2023-08-30T05:46:39;14.50;99.90
19864;DHT22;10094;48.820;9.226;2023-08-30T05:53:21;14.60;99.90
19864;DHT22;10094;48.820;9.226;2023-08-30T06:00:03;15.00;99.90
19864;DHT22;10094;48.820;9.226;2023-08-30T06:06:54;15.10;99.90
19864;DHT22;10094;48.820;9.226;2023-08-30T06:13:36;14.90;99.90
19864;DHT22;10094;48.820;9.226;2023-08-30T06:20:18;15.20;99.90
19864;DHT22;10094;48.820;9.226;2023-08-30T06:27:00;15.50;99.90
19864;DHT22;10094;48.820;9.226;2023-08-30T06:33:41;15.60;99.90
19864;DHT22;10094;48.820;9.226;2023-08-30T06:40:24;15.80;99.90
19864;DHT22;10094;48.820;9.226;2023-08-30T06:47:06;15.80;99.90
19864;DHT22;10094;48.820;9.226;2023-08-30T06:53:48;16.10;99.90
19864;DHT22;10094;48.820;9.226;2023-08-30T07:00:29;16.10;99.90
19864;DHT22;10094;48.820;9.226;2023-08-30T07:07:12;16.10;99.90
19864;DHT22;10094;48.820;9.226;2023-08-30T07:13:54;15.90;99.90
19864;DHT22;10094;48.820;9.226;2023-08-30T07:20:38;16.20;99.90
19864;DHT22;10094;48.820;9.226;2023-08-30T07:27:20;16.30;99.90
19864;DHT22;10094;48.820;9.226;2023-08-30T07:34:02;16.40;99.90
19864;DHT22;10094;48.820;9.226;2023-08-30T07:40:44;16.60;99.90
19864;DHT22;10094;48.820;9.226;2023-08-30T07:47:25;16.30;99.90
19864;DHT22;10094;48.820;9.226;2023-08-30T07:54:07;16.20;99.90
19864;DHT22;10094;48.820;9.226;2023-08-30T08:00:52;16.60;99.90
19864;DHT22;10094;48.820;9.226;2023-08-30T08:07:39;16.50;99.90
19864;DHT22;10094;48.820;9.226;2023-08-30T08:14:23;16.80;99.90
19864;DHT22;10094;48.820;9.226;2023-08-30T08:21:05;16.90;99.90
19864;DHT22;10094;48.820;9.226;2023-08-30T08:27:46;16.90;99.90
19864;DHT22;10094;48.820;9.226;2023-08-30T08:34:28;17.30;99.90
19864;DHT22;10094;48.820;9.226;2023-08-30T08:41:12;17.30;99.90
19864;DHT22;10094;48.820;9.226;2023-08-30T08:47:57;17.60;99.90
19864;DHT22;10094;48.820;9.226;2023-08-30T08:54:40;17.50;99.90
19864;DHT22;10094;48.820;9.226;2023-08-30T09:01:23;18.10;99.90
19864;DHT22;10094;48.820;9.226;2023-08-30T09:08:16;20.70;99.90
19864;DHT22;10094;48.820;9.226;2023-08-30T09:14:58;22.20;99.90
19864;DHT22;10094;48.820;9.226;2023-08-30T09:21:50;22.60;99.90
19864;DHT22;10094;48.820;9.226;2023-08-30T09:28:41;22.80;99.90
19864;DHT22;10094;48.820;9.226;2023-08-30T09:35:23;22.40;99.90
19864;DHT22;10094;48.820;9.226;2023-08-30T09:42:05;22.50;99.90
19864;DHT22;10094;48.820;9.226;2023-08-30T09:48:47;22.50;99.90
19864;DHT22;10094;48.820;9.226;2023-08-30T09:55:29;22.00;99.90
19864;DHT22;10094;48.820;9.226;2023-08-30T10:02:11;23.40;99.90
19864;DHT22;10094;48.820;9.226;2023-08-30T10:08:54;25.00;97.80
19864;DHT22;10094;48.820;9.226;2023-08-30T10:15:42;25.10;97.30
19864;DHT22;10094;48.820;9.226;2023-08-30T10:22:25;26.20;95.40
19864;DHT22;10094;48.820;9.226;2023-08-30T10:29:09;26.30;94.30
19864;DHT22;10094;48.820;9.226;2023-08-30T10:35:51;27.30;93.60
19864;DHT22;10094;48.820;9.226;2023-08-30T10:42:34;27.40;92.00
19864;DHT22;10094;48.820;9.226;2023-08-30T10:49:15;26.70;91.80
19864;DHT22;10094;48.820;9.226;2023-08-30T10:56:07;24.60;93.30
19864;DHT22;10094;48.820;9.226;2023-08-30T11:02:50;24.30;94.90
19864;DHT22;10094;48.820;9.226;2023-08-30T11:09:33;23.80;93.80
19864;DHT22;10094;48.820;9.226;2023-08-30T11:16:21;23.90;94.90
19864;DHT22;10094;48.820;9.226;2023-08-30T11:23:03;22.40;97.30
19864;DHT22;10094;48.820;9.226;2023-08-30T11:29:45;23.10;97.90
19864;DHT22;10094;48.820;9.226;2023-08-30T11:36:28;23.60;97.10
19864;DHT22;10094;48.820;9.226;2023-08-30T11:43:10;24.10;96.30
19864;DHT22;10094;48.820;9.226;2023-08-30T11:49:54;24.20;95.60
19864;DHT22;10094;48.820;9.226;2023-08-30T11:56:36;23.60;97.20
19864;DHT22;10094;48.820;9.226;2023-08-30T12:03:18;21.70;99.90
19864;DHT22;10094;48.820;9.226;2023-08-30T12:10:08;20.70;99.90
19864;DHT22;10094;48.820;9.226;2023-08-30T12:16:50;20.00;99.90
19864;DHT22;10094;48.820;9.226;2023-08-30T12:23:32;19.90;99.90
19864;DHT22;10094;48.820;9.226;2023-08-30T12:30:17;20.20;99.90
19864;DHT22;10094;48.820;9.226;2023-08-30T12:36:59;20.30;99.90
19864;DHT22;10094;48.820;9.226;2023-08-30T12:43:45;19.90;99.90
19864;DHT22;10094;48.820;9.226;2023-08-30T12:50:27;20.10;99.90
19864;DHT22;10094;48.820;9.226;2023-08-30T12:57:10;20.30;99.90
19864;DHT22;10094;48.820;9.226;2023-08-30T13:03:51;20.20;99.90
19864;DHT22;10094;48.820;9.226;2023-08-30T13:10:33;20.70;99.90
19864;DHT22;10094;48.820;9.226;2023-08-30T13:17:15;21.10;99.90
19864;DHT22;10094;48.820;9.226;2023-08-30T13:23:58;21.50;99.90
19864;DHT22;10094;48.820;9.226;2023-08-30T13:30:47;21.60;99.90
19864;DHT22;10094;48.820;9.226;2023-08-30T13:37:28;22.30;99.90
19864;DHT22;10094;48.820;9.226;2023-08-30T13:44:10;21.80;99.90
19864;DHT22;10094;48.820;9.226;2023-08-30T13:50:52;21.80;99.90
19864;DHT22;10094;48.820;9.226;2023-08-30T13:57:34;21.60;99.90
19864;DHT22;10094;48.820;9.226;2023-08-30T14:04:15;22.30;99.90
19864;DHT22;10094;48.820;9.226;2023-08-30T14:10:57;22.10;99.80
19864;DHT22;10094;48.820;9.226;2023-08-30T14:17:39;22.40;98.00
19864;DHT22;10094;48.820;9.226;2023-08-30T14:24:21;22.30;98.30
19864;DHT22;10094;48.820;9.226;2023-08-30T14:31:03;22.00;99.90
19864;DHT22;10094;48.820;9.226;2023-08-30T14:37:47;21.80;99.00
19864;DHT22;10094;48.820;9.226;2023-08-30T14:44:29;22.00;98.90
19864;DHT22;10094;48.820;9.226;2023-08-30T14:51:11;21.70;99.80
19864;DHT22;10094;48.820;9.226;2023-08-30T14:57:53;21.00;99.90
19864;DHT22;10094;48.820;9.226;2023-08-30T15:04:35;21.00;99.90
19864;DHT22;10094;48.820;9.226;2023-08-30T15:11:16;20.50;99.90
19864;DHT22;10094;48.820;9.226;2023-08-30T15:17:58;20.70;99.90
19864;DHT22;10094;48.820;9.226;2023-08-30T15:24:40;21.30;99.90
19864;DHT22;10094;48.820;9.226;2023-08-30T15:31:22;21.60;99.90
19864;DHT22;10094;48.820;9.226;2023-08-30T15:38:03;21.80;99.90
19864;DHT22;10094;48.820;9.226;2023-08-30T15:44:45;21.80;99.90
19864;DHT22;10094;48.820;9.226;2023-08-30T15:51:27;21.30;99.90
19864;DHT22;10094;48.820;9.226;2023-08-30T15:58:09;21.70;99.90
19864;DHT22;10094;48.820;9.226;2023-08-30T16:04:50;21.20;99.90
19864;DHT22;10094;48.820;9.226;2023-08-30T16:11:32;21.30;99.90
19864;DHT22;10094;48.820;9.226;2023-08-30T16:18:14;21.00;99.90
19864;DHT22;10094;48.820;9.226;2023-08-30T16:24:57;20.70;99.90
19864;DHT22;10094;48.820;9.226;2023-08-30T16:31:39;20.60;99.90
19864;DHT22;10094;48.820;9.226;2023-08-30T16:38:21;20.60;99.90
19864;DHT22;10094;48.820;9.226;2023-08-30T16:45:03;20.60;99.90
19864;DHT22;10094;48.820;9.226;2023-08-30T16:51:45;20.60;99.90
19864;DHT22;10094;48.820;9.226;2023-08-30T16:58:27;20.60;99.90
19864;DHT22;10094;48.820;9.226;2023-08-30T17:05:09;20.70;99.90
19864;DHT22;10094;48.820;9.226;2023-08-30T17:11:50;20.60;99.90
19864;DHT22;10094;48.820;9.226;2023-08-30T17:18:32;20.50;99.90
19864;DHT22;10094;48.820;9.226;2023-08-30T17:25:15;20.00;99.90
19864;DHT22;10094;48.820;9.226;2023-08-30T17:31:57;19.80;99.90
19864;DHT22;10094;48.820;9.226;2023-08-30T17:38:39;19.70;99.90
19864;DHT22;10094;48.820;9.226;2023-08-30T17:45:21;19.70;99.90
19864;DHT22;10094;48.820;9.226;2023-08-30T17:52:03;19.30;99.90
19864;DHT22;10094;48.820;9.226;2023-08-30T17:58:45;19.10;99.90
19864;DHT22;10094;48.820;9.226;2023-08-30T18:05:27;18.90;99.90
19864;DHT22;10094;48.820;9.226;2023-08-30T18:12:08;18.70;99.90
19864;DHT22;10094;48.820;9.226;2023-08-30T18:18:51;18.40;99.90
19864;DHT22;10094;48.820;9.226;2023-08-30T18:25:36;18.40;99.90
19864;DHT22;10094;48.820;9.226;2023-08-30T18:32:17;18.30;99.90
19864;DHT22;10094;48.820;9.226;2023-08-30T18:38:59;18.00;99.90
19864;DHT22;10094;48.820;9.226;2023-08-30T18:45:44;17.90;99.90
19864;DHT22;10094;48.820;9.226;2023-08-30T18:52:27;18.20;99.90
19864;DHT22;10094;48.820;9.226;2023-08-30T18:59:09;18.00;99.90
19864;DHT22;10094;48.820;9.226;2023-08-30T19:05:51;17.80;99.90
19864;DHT22;10094;48.820;9.226;2023-08-30T19:12:32;17.80;99.90
19864;DHT22;10094;48.820;9.226;2023-08-30T19:19:14;18.30;99.90
19864;DHT22;10094;48.820;9.226;2023-08-30T19:25:56;18.20;99.90
19864;DHT22;10094;48.820;9.226;2023-08-30T19:32:39;18.10;99.90
19864;DHT22;10094;48.820;9.226;2023-08-30T19:39:21;18.30;99.90
19864;DHT22;10094;48.820;9.226;2023-08-30T19:46:04;18.30;99.90
19864;DHT22;10094;48.820;9.226;2023-08-30T19:52:47;18.30;99.90
19864;DHT22;10094;48.820;9.226;2023-08-30T19:59:29;18.40;99.90
19864;DHT22;10094;48.820;9.226;2023-08-30T20:06:10;18.30;99.90
19864;DHT22;10094;48.820;9.226;2023-08-30T20:12:52;18.10;99.90
19864;DHT22;10094;48.820;9.226;2023-08-30T20:19:34;18.70;99.90
19864;DHT22;10094;48.820;9.226;2023-08-30T20:26:16;17.80;99.90
19864;DHT22;10094;48.820;9.226;2023-08-30T20:32:58;17.80;99.90
19864;DHT22;10094;48.820;9.226;2023-08-30T20:39:39;17.70;99.90
19864;DHT22;10094;48.820;9.226;2023-08-30T20:46:21;17.50;99.90
19864;DHT22;10094;48.820;9.226;2023-08-30T20:53:04;17.50;99.90
19864;DHT22;10094;48.820;9.226;2023-08-30T20:59:45;17.20;99.90
19864;DHT22;10094;48.820;9.226;2023-08-30T21:06:27;17.20;99.90
19864;DHT22;10094;48.820;9.226;2023-08-30T21:13:09;17.00;99.90
19864;DHT22;10094;48.820;9.226;2023-08-30T21:19:50;17.10;99.90
19864;DHT22;10094;48.820;9.226;2023-08-30T21:26:32;17.00;99.90
19864;DHT22;10094;48.820;9.226;2023-08-30T21:33:16;17.50;99.90
19864;DHT22;10094;48.820;9.226;2023-08-30T21:39:58;17.10;99.90
19864;DHT22;10094;48.820;9.226;2023-08-30T21:46:41;17.50;99.90
19864;DHT22;10094;48.820;9.226;2023-08-30T21:53:23;17.00;99.90
19864;DHT22;10094;48.820;9.226;2023-08-30T22:00:05;17.00;99.90
19864;DHT22;10094;48.820;9.226;2023-08-30T22:06:56;16.80;99.90
19864;DHT22;10094;48.820;9.226;2023-08-30T22:13:37;16.50;99.90
19864;DHT22;10094;48.820;9.226;2023-08-30T22:20:19;16.70;99.90
19864;DHT22;10094;48.820;9.226;2023-08-30T22:27:01;16.70;99.90
19864;DHT22;10094;48.820;9.226;2023-08-30T22:33:43;16.50;99.90
19864;DHT22;10094;48.820;9.226;2023-08-30T22:40:26;16.60;99.90
19864;DHT22;10094;48.820;9.226;2023-08-30T22:47:07;16.10;99.90
19864;DHT22;10094;48.820;9.226;2023-08-30T22:53:50;16.30;99.90
19864;DHT22;10094;48.820;9.226;2023-08-30T23:00:32;16.20;99.90
19864;DHT22;10094;48.820;9.226;2023-08-30T23:07:14;16.20;99.90
19864;DHT22;10094;48.820;9.226;2023-08-30T23:13:55;16.20;99.90
19864;DHT22;10094;48.820;9.226;2023-08-30T23:20:37;15.70;99.90
19864;DHT22;10094;48.820;9.226;2023-08-30T23:27:20;15.90;99.90
19864;DHT22;10094;48.820;9.226;2023-08-30T23:34:01;15.80;99.90
19864;DHT22;10094;48.820;9.226;2023-08-30T23:40:44;16.30;99.90
19864;DHT22;10094;48.820;9.226;2023-08-30T23:47:26;15.80;99.90
19864;DHT22;10094;48.820;9.226;2023-08-30T23:54:08;16.40;99.90
